<?xml version="1.0" encoding="utf-8"?>
<gpx xmlns="http://www.topografix.com/GPX/1/1" xmlns:gpxtpx="http://www.garmin.com/xmlschemas/TrackPointExtension/v1" creator="OruxMaps v.7.0.2; modified by GPX Track Cleaner from GPX Viewer plugin (WordPress) " version="1.1" xmlns:xsi="http://www.w3.org/2001/XMLSchema-instance" xsi:schemaLocation="http://www.topografix.com/GPX/1/1 http://www.topografix.com/GPX/1/1/gpx.xsd">

	<trk>
		<name>Carboneras</name>
		<cmt> distance: 3.8 km, up: 123 m, down: 662 m</cmt>
		<desc>1 track segments, original data of track points</desc>
		<extensions><om:oruxmapsextensions xmlns:om="http://www.oruxmaps.com/oruxmapsextensions/1/0"><om:ext type="TYPE" subtype="0">0</om:ext><om:ext type="DIFFICULTY">0</om:ext></om:oruxmapsextensions>	</extensions>
		<trkseg>
			<trkpt lat="42.9922459" lon="-1.5463736">
				<ele>1171</ele>
				<time>2018-10-09T16:13:57Z</time>
			</trkpt>
			<trkpt lat="42.9921016" lon="-1.5462065">
				<ele>1171</ele>
				<time>2018-10-09T16:14:20Z</time>
			</trkpt>
			<trkpt lat="42.992123" lon="-1.545954">
				<ele>1171</ele>
				<time>2018-10-09T16:14:36Z</time>
			</trkpt>
			<trkpt lat="42.9922097" lon="-1.5457376">
				<ele>1202</ele>
				<time>2018-10-09T16:14:52Z</time>
			</trkpt>
			<trkpt lat="42.9923561" lon="-1.5455904">
				<ele>1202</ele>
				<time>2018-10-09T16:15:22Z</time>
			</trkpt>
			<trkpt lat="42.9923442" lon="-1.5453237">
				<ele>1202</ele>
				<time>2018-10-09T16:16:06Z</time>
			</trkpt>
			<trkpt lat="42.9922944" lon="-1.5450854">
				<ele>1202</ele>
				<time>2018-10-09T16:16:21Z</time>
			</trkpt>
			<trkpt lat="42.992337" lon="-1.5448248">
				<ele>1202</ele>
				<time>2018-10-09T16:16:35Z</time>
			</trkpt>
			<trkpt lat="42.9924327" lon="-1.5445973">
				<ele>1202</ele>
				<time>2018-10-09T16:16:50Z</time>
			</trkpt>
			<trkpt lat="42.9925204" lon="-1.5443731">
				<ele>1202</ele>
				<time>2018-10-09T16:17:07Z</time>
			</trkpt>
			<trkpt lat="42.9926311" lon="-1.5441667">
				<ele>1202</ele>
				<time>2018-10-09T16:17:31Z</time>
			</trkpt>
			<trkpt lat="42.9927398" lon="-1.5439675">
				<ele>1202</ele>
				<time>2018-10-09T16:17:48Z</time>
			</trkpt>
			<trkpt lat="42.9928571" lon="-1.5437726">
				<ele>1202</ele>
				<time>2018-10-09T16:18:03Z</time>
			</trkpt>
			<trkpt lat="42.9929876" lon="-1.5435933">
				<ele>1158</ele>
				<time>2018-10-09T16:18:21Z</time>
			</trkpt>
			<trkpt lat="42.9931397" lon="-1.543436">
				<ele>1158</ele>
				<time>2018-10-09T16:18:32Z</time>
			</trkpt>
			<trkpt lat="42.9932739" lon="-1.543247">
				<ele>1158</ele>
				<time>2018-10-09T16:18:45Z</time>
			</trkpt>
			<trkpt lat="42.9933307" lon="-1.5429901">
				<ele>1158</ele>
				<time>2018-10-09T16:18:57Z</time>
			</trkpt>
			<trkpt lat="42.9934143" lon="-1.5427555">
				<ele>1158</ele>
				<time>2018-10-09T16:19:10Z</time>
			</trkpt>
			<trkpt lat="42.9934822" lon="-1.5425182">
				<ele>1158</ele>
				<time>2018-10-09T16:19:23Z</time>
			</trkpt>
			<trkpt lat="42.9934909" lon="-1.5421871">
				<ele>1158</ele>
				<time>2018-10-09T16:19:39Z</time>
			</trkpt>
			<trkpt lat="42.9935938" lon="-1.5419842">
				<ele>1158</ele>
				<time>2018-10-09T16:19:53Z</time>
			</trkpt>
			<trkpt lat="42.9937445" lon="-1.541773">
				<ele>1158</ele>
				<time>2018-10-09T16:20:04Z</time>
			</trkpt>
			<trkpt lat="42.9937648" lon="-1.5415209">
				<ele>1132</ele>
				<time>2018-10-09T16:20:14Z</time>
			</trkpt>
			<trkpt lat="42.9938444" lon="-1.5412993">
				<ele>1132</ele>
				<time>2018-10-09T16:20:23Z</time>
			</trkpt>
			<trkpt lat="42.9938619" lon="-1.5410301">
				<ele>1132</ele>
				<time>2018-10-09T16:20:33Z</time>
			</trkpt>
			<trkpt lat="42.9938915" lon="-1.5407741">
				<ele>1132</ele>
				<time>2018-10-09T16:20:42Z</time>
			</trkpt>
			<trkpt lat="42.9938778" lon="-1.5405285">
				<ele>1132</ele>
				<time>2018-10-09T16:20:48Z</time>
			</trkpt>
			<trkpt lat="42.9939791" lon="-1.5403008">
				<ele>1132</ele>
				<time>2018-10-09T16:20:56Z</time>
			</trkpt>
			<trkpt lat="42.9940542" lon="-1.5400539">
				<ele>1132</ele>
				<time>2018-10-09T16:21:05Z</time>
			</trkpt>
			<trkpt lat="42.9941735" lon="-1.5398463">
				<ele>1132</ele>
				<time>2018-10-09T16:21:15Z</time>
			</trkpt>
			<trkpt lat="42.9942142" lon="-1.5395724">
				<ele>1117</ele>
				<time>2018-10-09T16:21:26Z</time>
			</trkpt>
			<trkpt lat="42.994185" lon="-1.5393295">
				<ele>1117</ele>
				<time>2018-10-09T16:21:35Z</time>
			</trkpt>
			<trkpt lat="42.9942253" lon="-1.53908">
				<ele>1117</ele>
				<time>2018-10-09T16:21:44Z</time>
			</trkpt>
			<trkpt lat="42.9943053" lon="-1.5388389">
				<ele>1117</ele>
				<time>2018-10-09T16:21:55Z</time>
			</trkpt>
			<trkpt lat="42.994417" lon="-1.5386001">
				<ele>1117</ele>
				<time>2018-10-09T16:22:03Z</time>
			</trkpt>
			<trkpt lat="42.9943963" lon="-1.5383526">
				<ele>1117</ele>
				<time>2018-10-09T16:22:15Z</time>
			</trkpt>
			<trkpt lat="42.9944241" lon="-1.5380902">
				<ele>1117</ele>
				<time>2018-10-09T16:22:27Z</time>
			</trkpt>
			<trkpt lat="42.9945116" lon="-1.5378619">
				<ele>1117</ele>
				<time>2018-10-09T16:22:42Z</time>
			</trkpt>
			<trkpt lat="42.9945979" lon="-1.5376106">
				<ele>1117</ele>
				<time>2018-10-09T16:22:53Z</time>
			</trkpt>
			<trkpt lat="42.9946828" lon="-1.5373863">
				<ele>1095</ele>
				<time>2018-10-09T16:23:02Z</time>
			</trkpt>
			<trkpt lat="42.9947263" lon="-1.5371437">
				<ele>1095</ele>
				<time>2018-10-09T16:23:09Z</time>
			</trkpt>
			<trkpt lat="42.9947937" lon="-1.5369142">
				<ele>1095</ele>
				<time>2018-10-09T16:23:22Z</time>
			</trkpt>
			<trkpt lat="42.9947204" lon="-1.5366722">
				<ele>1095</ele>
				<time>2018-10-09T16:23:32Z</time>
			</trkpt>
			<trkpt lat="42.9946588" lon="-1.536419">
				<ele>1095</ele>
				<time>2018-10-09T16:23:42Z</time>
			</trkpt>
			<trkpt lat="42.9946322" lon="-1.53614">
				<ele>1095</ele>
				<time>2018-10-09T16:23:48Z</time>
			</trkpt>
			<trkpt lat="42.9946965" lon="-1.5358839">
				<ele>1095</ele>
				<time>2018-10-09T16:24:03Z</time>
			</trkpt>
			<trkpt lat="42.9947217" lon="-1.5356194">
				<ele>1095</ele>
				<time>2018-10-09T16:24:12Z</time>
			</trkpt>
			<trkpt lat="42.9945752" lon="-1.5354548">
				<ele>1095</ele>
				<time>2018-10-09T16:24:23Z</time>
			</trkpt>
			<trkpt lat="42.9946102" lon="-1.5352102">
				<ele>1066</ele>
				<time>2018-10-09T16:24:35Z</time>
			</trkpt>
			<trkpt lat="42.9945347" lon="-1.5349676">
				<ele>1066</ele>
				<time>2018-10-09T16:24:42Z</time>
			</trkpt>
			<trkpt lat="42.9945535" lon="-1.534715">
				<ele>1066</ele>
				<time>2018-10-09T16:24:52Z</time>
			</trkpt>
			<trkpt lat="42.9944717" lon="-1.5344895">
				<ele>1066</ele>
				<time>2018-10-09T16:25:01Z</time>
			</trkpt>
			<trkpt lat="42.9944451" lon="-1.534245">
				<ele>1066</ele>
				<time>2018-10-09T16:25:12Z</time>
			</trkpt>
			<trkpt lat="42.994334" lon="-1.5340485">
				<ele>1066</ele>
				<time>2018-10-09T16:25:30Z</time>
			</trkpt>
			<trkpt lat="42.994262" lon="-1.5338011">
				<ele>1066</ele>
				<time>2018-10-09T16:25:38Z</time>
			</trkpt>
			<trkpt lat="42.9942028" lon="-1.5335519">
				<ele>1066</ele>
				<time>2018-10-09T16:25:52Z</time>
			</trkpt>
			<trkpt lat="42.9941411" lon="-1.5333125">
				<ele>1032</ele>
				<time>2018-10-09T16:26:02Z</time>
			</trkpt>
			<trkpt lat="42.9940501" lon="-1.5330909">
				<ele>1032</ele>
				<time>2018-10-09T16:26:08Z</time>
			</trkpt>
			<trkpt lat="42.993971" lon="-1.5328612">
				<ele>1032</ele>
				<time>2018-10-09T16:26:22Z</time>
			</trkpt>
			<trkpt lat="42.993838" lon="-1.5326543">
				<ele>1032</ele>
				<time>2018-10-09T16:26:34Z</time>
			</trkpt>
			<trkpt lat="42.9938152" lon="-1.5324047">
				<ele>1032</ele>
				<time>2018-10-09T16:26:44Z</time>
			</trkpt>
			<trkpt lat="42.993756" lon="-1.5321614">
				<ele>1032</ele>
				<time>2018-10-09T16:26:55Z</time>
			</trkpt>
			<trkpt lat="42.9937366" lon="-1.5319032">
				<ele>968</ele>
				<time>2018-10-09T16:27:04Z</time>
			</trkpt>
			<trkpt lat="42.9937319" lon="-1.5316472">
				<ele>968</ele>
				<time>2018-10-09T16:27:15Z</time>
			</trkpt>
			<trkpt lat="42.9938719" lon="-1.5314548">
				<ele>1032</ele>
				<time>2018-10-09T16:27:26Z</time>
			</trkpt>
			<trkpt lat="42.9940454" lon="-1.5313735">
				<ele>1032</ele>
				<time>2018-10-09T16:27:36Z</time>
			</trkpt>
			<trkpt lat="42.9942115" lon="-1.5312609">
				<ele>1032</ele>
				<time>2018-10-09T16:27:46Z</time>
			</trkpt>
			<trkpt lat="42.9943917" lon="-1.5311699">
				<ele>980</ele>
				<time>2018-10-09T16:28:00Z</time>
			</trkpt>
			<trkpt lat="42.9945755" lon="-1.5310733">
				<ele>980</ele>
				<time>2018-10-09T16:28:10Z</time>
			</trkpt>
			<trkpt lat="42.9947598" lon="-1.530993">
				<ele>980</ele>
				<time>2018-10-09T16:28:21Z</time>
			</trkpt>
			<trkpt lat="42.994957" lon="-1.5309702">
				<ele>980</ele>
				<time>2018-10-09T16:28:29Z</time>
			</trkpt>
			<trkpt lat="42.9951504" lon="-1.530912">
				<ele>980</ele>
				<time>2018-10-09T16:28:37Z</time>
			</trkpt>
			<trkpt lat="42.9953272" lon="-1.5308318">
				<ele>980</ele>
				<time>2018-10-09T16:28:44Z</time>
			</trkpt>
			<trkpt lat="42.9954979" lon="-1.530683">
				<ele>980</ele>
				<time>2018-10-09T16:28:54Z</time>
			</trkpt>
			<trkpt lat="42.9956337" lon="-1.5305215">
				<ele>980</ele>
				<time>2018-10-09T16:29:03Z</time>
			</trkpt>
			<trkpt lat="42.9958134" lon="-1.5304527">
				<ele>980</ele>
				<time>2018-10-09T16:29:10Z</time>
			</trkpt>
			<trkpt lat="42.9959784" lon="-1.5303244">
				<ele>975</ele>
				<time>2018-10-09T16:29:20Z</time>
			</trkpt>
			<trkpt lat="42.9960996" lon="-1.5301316">
				<ele>975</ele>
				<time>2018-10-09T16:29:29Z</time>
			</trkpt>
			<trkpt lat="42.9962805" lon="-1.5300441">
				<ele>975</ele>
				<time>2018-10-09T16:29:38Z</time>
			</trkpt>
			<trkpt lat="42.9964032" lon="-1.5298522">
				<ele>975</ele>
				<time>2018-10-09T16:30:13Z</time>
			</trkpt>
			<trkpt lat="42.9965375" lon="-1.529671">
				<ele>975</ele>
				<time>2018-10-09T16:30:30Z</time>
			</trkpt>
			<trkpt lat="42.9965847" lon="-1.5294172">
				<ele>975</ele>
				<time>2018-10-09T16:30:44Z</time>
			</trkpt>
			<trkpt lat="42.9966186" lon="-1.5291591">
				<ele>937</ele>
				<time>2018-10-09T16:31:01Z</time>
			</trkpt>
			<trkpt lat="42.996783" lon="-1.5290075">
				<ele>937</ele>
				<time>2018-10-09T16:31:14Z</time>
			</trkpt>
			<trkpt lat="42.9969604" lon="-1.5290497">
				<ele>937</ele>
				<time>2018-10-09T16:31:23Z</time>
			</trkpt>
			<trkpt lat="42.9971549" lon="-1.529052">
				<ele>937</ele>
				<time>2018-10-09T16:31:36Z</time>
			</trkpt>
			<trkpt lat="42.9973463" lon="-1.5290274">
				<ele>937</ele>
				<time>2018-10-09T16:31:45Z</time>
			</trkpt>
			<trkpt lat="42.997527" lon="-1.5290088">
				<ele>937</ele>
				<time>2018-10-09T16:31:55Z</time>
			</trkpt>
			<trkpt lat="42.9976928" lon="-1.5289131">
				<ele>937</ele>
				<time>2018-10-09T16:32:10Z</time>
			</trkpt>
			<trkpt lat="42.9978797" lon="-1.5288601">
				<ele>937</ele>
				<time>2018-10-09T16:32:32Z</time>
			</trkpt>
			<trkpt lat="42.9979095" lon="-1.5286059">
				<ele>937</ele>
				<time>2018-10-09T16:32:45Z</time>
			</trkpt>
			<trkpt lat="42.9980926" lon="-1.5285556">
				<ele>922</ele>
				<time>2018-10-09T16:32:55Z</time>
			</trkpt>
			<trkpt lat="42.998162" lon="-1.5283019">
				<ele>922</ele>
				<time>2018-10-09T16:33:09Z</time>
			</trkpt>
			<trkpt lat="42.9980967" lon="-1.5280665">
				<ele>922</ele>
				<time>2018-10-09T16:33:18Z</time>
			</trkpt>
			<trkpt lat="42.9980616" lon="-1.5278051">
				<ele>922</ele>
				<time>2018-10-09T16:33:33Z</time>
			</trkpt>
			<trkpt lat="42.998056" lon="-1.5275299">
				<ele>922</ele>
				<time>2018-10-09T16:33:45Z</time>
			</trkpt>
			<trkpt lat="42.9981419" lon="-1.5273002">
				<ele>922</ele>
				<time>2018-10-09T16:33:54Z</time>
			</trkpt>
			<trkpt lat="42.9983238" lon="-1.5272126">
				<ele>922</ele>
				<time>2018-10-09T16:34:06Z</time>
			</trkpt>
			<trkpt lat="42.9984228" lon="-1.5269932">
				<ele>885</ele>
				<time>2018-10-09T16:34:17Z</time>
			</trkpt>
			<trkpt lat="42.9984824" lon="-1.5267421">
				<ele>885</ele>
				<time>2018-10-09T16:34:26Z</time>
			</trkpt>
			<trkpt lat="42.9986042" lon="-1.5265524">
				<ele>885</ele>
				<time>2018-10-09T16:34:39Z</time>
			</trkpt>
			<trkpt lat="42.9986752" lon="-1.5263034">
				<ele>885</ele>
				<time>2018-10-09T16:34:50Z</time>
			</trkpt>
			<trkpt lat="42.9987903" lon="-1.5261012">
				<ele>885</ele>
				<time>2018-10-09T16:35:07Z</time>
			</trkpt>
			<trkpt lat="42.9988972" lon="-1.5258928">
				<ele>885</ele>
				<time>2018-10-09T16:35:19Z</time>
			</trkpt>
			<trkpt lat="42.9988876" lon="-1.5256082">
				<ele>885</ele>
				<time>2018-10-09T16:35:34Z</time>
			</trkpt>
			<trkpt lat="42.9987267" lon="-1.5254735">
				<ele>885</ele>
				<time>2018-10-09T16:35:43Z</time>
			</trkpt>
			<trkpt lat="42.9985668" lon="-1.5252975">
				<ele>885</ele>
				<time>2018-10-09T16:35:52Z</time>
			</trkpt>
			<trkpt lat="42.9983842" lon="-1.5252698">
				<ele>885</ele>
				<time>2018-10-09T16:36:02Z</time>
			</trkpt>
			<trkpt lat="42.9982134" lon="-1.5251607">
				<ele>885</ele>
				<time>2018-10-09T16:36:12Z</time>
			</trkpt>
			<trkpt lat="42.9981478" lon="-1.5248959">
				<ele>807</ele>
				<time>2018-10-09T16:36:30Z</time>
			</trkpt>
			<trkpt lat="42.9980456" lon="-1.524683">
				<ele>807</ele>
				<time>2018-10-09T16:37:05Z</time>
			</trkpt>
			<trkpt lat="42.9980259" lon="-1.5244225">
				<ele>807</ele>
				<time>2018-10-09T16:37:33Z</time>
			</trkpt>
			<trkpt lat="42.9980273" lon="-1.5241479">
				<ele>807</ele>
				<time>2018-10-09T16:37:58Z</time>
			</trkpt>
			<trkpt lat="42.9982192" lon="-1.5242242">
				<ele>807</ele>
				<time>2018-10-09T16:38:07Z</time>
			</trkpt>
			<trkpt lat="42.9984229" lon="-1.5242375">
				<ele>807</ele>
				<time>2018-10-09T16:38:24Z</time>
			</trkpt>
			<trkpt lat="42.9986122" lon="-1.5242015">
				<ele>807</ele>
				<time>2018-10-09T16:38:34Z</time>
			</trkpt>
			<trkpt lat="42.9985361" lon="-1.5239708">
				<ele>807</ele>
				<time>2018-10-09T16:38:59Z</time>
			</trkpt>
			<trkpt lat="42.9983655" lon="-1.5238372">
				<ele>807</ele>
				<time>2018-10-09T16:39:06Z</time>
			</trkpt>
			<trkpt lat="42.9981901" lon="-1.5237364">
				<ele>807</ele>
				<time>2018-10-09T16:39:18Z</time>
			</trkpt>
			<trkpt lat="42.9980724" lon="-1.5235443">
				<ele>807</ele>
				<time>2018-10-09T16:39:28Z</time>
			</trkpt>
			<trkpt lat="42.9982807" lon="-1.5235449">
				<ele>807</ele>
				<time>2018-10-09T16:39:44Z</time>
			</trkpt>
			<trkpt lat="42.9984604" lon="-1.5236392">
				<ele>807</ele>
				<time>2018-10-09T16:39:54Z</time>
			</trkpt>
			<trkpt lat="42.9984224" lon="-1.5233531">
				<ele>807</ele>
				<time>2018-10-09T16:40:13Z</time>
			</trkpt>
			<trkpt lat="42.9982522" lon="-1.5232485">
				<ele>807</ele>
				<time>2018-10-09T16:40:23Z</time>
			</trkpt>
			<trkpt lat="42.9981298" lon="-1.5230635">
				<ele>807</ele>
				<time>2018-10-09T16:40:32Z</time>
			</trkpt>
			<trkpt lat="42.9979486" lon="-1.5231075">
				<ele>807</ele>
				<time>2018-10-09T16:40:57Z</time>
			</trkpt>
			<trkpt lat="42.9978326" lon="-1.5229149">
				<ele>750</ele>
				<time>2018-10-09T16:41:08Z</time>
			</trkpt>
			<trkpt lat="42.9980261" lon="-1.5228406">
				<ele>722</ele>
				<time>2018-10-09T16:41:21Z</time>
			</trkpt>
			<trkpt lat="42.9981754" lon="-1.5226611">
				<ele>722</ele>
				<time>2018-10-09T16:41:38Z</time>
			</trkpt>
			<trkpt lat="42.9983743" lon="-1.5226354">
				<ele>722</ele>
				<time>2018-10-09T16:41:53Z</time>
			</trkpt>
			<trkpt lat="42.9985556" lon="-1.52262">
				<ele>722</ele>
				<time>2018-10-09T16:42:03Z</time>
			</trkpt>
			<trkpt lat="42.9987425" lon="-1.522617">
				<ele>722</ele>
				<time>2018-10-09T16:42:14Z</time>
			</trkpt>
			<trkpt lat="42.998642" lon="-1.5223948">
				<ele>722</ele>
				<time>2018-10-09T16:44:01Z</time>
			</trkpt>
			<trkpt lat="42.9985028" lon="-1.5222098">
				<ele>722</ele>
				<time>2018-10-09T16:44:12Z</time>
			</trkpt>
			<trkpt lat="42.9983631" lon="-1.5220228">
				<ele>722</ele>
				<time>2018-10-09T16:44:22Z</time>
			</trkpt>
			<trkpt lat="42.9981709" lon="-1.5219426">
				<ele>722</ele>
				<time>2018-10-09T16:44:43Z</time>
			</trkpt>
			<trkpt lat="42.9979914" lon="-1.5217807">
				<ele>722</ele>
				<time>2018-10-09T16:44:52Z</time>
			</trkpt>
			<trkpt lat="42.9979786" lon="-1.5215319">
				<ele>722</ele>
				<time>2018-10-09T16:45:10Z</time>
			</trkpt>
			<trkpt lat="42.9978186" lon="-1.5213501">
				<ele>750</ele>
				<time>2018-10-09T16:45:27Z</time>
			</trkpt>
			<trkpt lat="42.9977542" lon="-1.5211176">
				<ele>750</ele>
				<time>2018-10-09T16:45:53Z</time>
			</trkpt>
			<trkpt lat="42.997697" lon="-1.5208696">
				<ele>750</ele>
				<time>2018-10-09T16:46:12Z</time>
			</trkpt>
			<trkpt lat="42.9976666" lon="-1.5206271">
				<ele>683</ele>
				<time>2018-10-09T16:46:27Z</time>
			</trkpt>
			<trkpt lat="42.9978596" lon="-1.5206602">
				<ele>683</ele>
				<time>2018-10-09T16:46:38Z</time>
			</trkpt>
			<trkpt lat="42.9980402" lon="-1.5206763">
				<ele>642</ele>
				<time>2018-10-09T16:46:54Z</time>
			</trkpt>
			<trkpt lat="42.9982457" lon="-1.5207191">
				<ele>642</ele>
				<time>2018-10-09T16:47:07Z</time>
			</trkpt>
			<trkpt lat="42.9984372" lon="-1.5206723">
				<ele>642</ele>
				<time>2018-10-09T16:47:19Z</time>
			</trkpt>
			<trkpt lat="42.9986201" lon="-1.5206746">
				<ele>642</ele>
				<time>2018-10-09T16:47:37Z</time>
			</trkpt>
			<trkpt lat="42.9988057" lon="-1.5206374">
				<ele>642</ele>
				<time>2018-10-09T16:47:51Z</time>
			</trkpt>
			<trkpt lat="42.9989895" lon="-1.5206169">
				<ele>642</ele>
				<time>2018-10-09T16:48:04Z</time>
			</trkpt>
			<trkpt lat="42.9991674" lon="-1.5205043">
				<ele>642</ele>
				<time>2018-10-09T16:48:21Z</time>
			</trkpt>
			<trkpt lat="42.9993314" lon="-1.5204006">
				<ele>642</ele>
				<time>2018-10-09T16:48:44Z</time>
			</trkpt>
			<trkpt lat="42.9993621" lon="-1.5201452">
				<ele>642</ele>
				<time>2018-10-09T16:49:00Z</time>
			</trkpt>
			<trkpt lat="42.9993179" lon="-1.5199052">
				<ele>642</ele>
				<time>2018-10-09T16:49:14Z</time>
			</trkpt>
			<trkpt lat="42.9992433" lon="-1.5196631">
				<ele>642</ele>
				<time>2018-10-09T16:49:28Z</time>
			</trkpt>
			<trkpt lat="42.9992121" lon="-1.5193902">
				<ele>642</ele>
				<time>2018-10-09T16:49:42Z</time>
			</trkpt>
			<trkpt lat="42.9991926" lon="-1.5191209">
				<ele>642</ele>
				<time>2018-10-09T16:49:55Z</time>
			</trkpt>
			<trkpt lat="42.9992012" lon="-1.5188642">
				<ele>642</ele>
				<time>2018-10-09T16:50:10Z</time>
			</trkpt>
			<trkpt lat="42.9992662" lon="-1.5186257">
				<ele>632</ele>
				<time>2018-10-09T16:50:24Z</time>
			</trkpt>
		</trkseg>
	</trk>
</gpx>
